Stations météo

réclame
Mon MeteoGroup
Fichtelberg, Allemagne (10578): Température de l'air & dewpoint: 14.11.2017 01:00:00 - 20.11.2017 01:00:00 (CET)Fichtelberg, Allemagne (10578): Température de l'air 5cm & Température de l'air -5cm: 14.11.2017 01:00:00 - 20.11.2017 01:00:00 (CET)Fichtelberg, Allemagne (10578): Température de l'air -20cm & Température de l'air -100cm: 14.11.2017 01:00:00 - 20.11.2017 01:00:00 (CET)Fichtelberg, Allemagne (10578): Vitesse du vent & gusts: 14.11.2017 01:00:00 - 20.11.2017 01:00:00 (CET)Fichtelberg, Allemagne (10578): Direction du vent: 14.11.2017 01:00:00 - 20.11.2017 01:00:00 (CET)Fichtelberg, Allemagne (10578): visibility: 14.11.2017 01:00:00 - 20.11.2017 01:00:00 (CET)Fichtelberg, Allemagne (10578): Ensoleillement: 14.11.2017 01:00:00 - 20.11.2017 01:00:00 (CET)
Date & Time tt [°C] td [°C] tt 5cm [°C] tt -5cm [°C] tt -20cm [°C] tt -100cm [°C] ff [km/h] ff [knt] fx [km/h] fx [knt] dd vv [km] sd [min]
20.11.2017 01:00:00 - - - - - - - - - - - - -
20.11.2017 00:00:00 -2,6 -2,9 -2,7 0,5 1,5 5,4 69 37 98 53 W 0,1 0
19.11.2017 23:00:00 -2,6 -2,9 -2,7 0,5 1,5 5,4 61 33 96 52 W 0,1 0
19.11.2017 22:00:00 -2,6 -2,9 -2,7 0,5 1,5 5,4 64 35 96 52 W 0,1 0
19.11.2017 21:00:00 -2,7 -3,0 -2,8 0,5 1,5 5,4 65 35 99 53 W 0,1 0
19.11.2017 20:00:00 -2,6 -2,9 -2,7 0,5 1,5 5,4 66 36 99 54 W - 0
19.11.2017 19:00:00 -2,4 -2,7 -2,5 0,5 1,5 5,4 70 38 96 52 W 0,1 0
19.11.2017 18:00:00 -2,4 -2,7 -2,5 0,5 1,5 5,4 71 38 105 57 W 0,1 0
19.11.2017 17:00:00 -2,5 -2,8 -2,6 0,5 1,5 5,4 72 39 95 52 W 0,1 0
19.11.2017 16:00:00 -2,6 -2,9 -2,7 0,5 1,5 5,4 74 40 102 55 W 0,1 0
19.11.2017 15:00:00 -2,8 -3,2 -2,9 0,5 1,5 5,4 61 33 87 47 W 0,1 0
19.11.2017 14:00:00 -3,0 -3,4 -3,1 0,5 1,5 5,4 67 36 91 49 W 0,1 0
19.11.2017 13:00:00 -3,2 -3,6 -3,2 0,5 1,5 5,4 65 35 85 46 W 0,1 0
19.11.2017 12:00:00 -3,4 -3,8 -3,4 0,5 1,5 5,4 58 31 78 42 W 0,1 0
19.11.2017 11:00:00 -3,5 -4,0 -3,5 0,5 1,5 5,5 57 31 79 43 W 0,1 0
19.11.2017 10:00:00 -4,0 -4,5 -3,9 0,5 1,5 5,5 46 25 74 40 W 0,1 0
19.11.2017 09:00:00 -4,1 -4,6 -4,1 0,5 1,5 5,5 51 28 75 40 W 0,1 0
19.11.2017 08:00:00 -4,0 -4,5 -4,0 0,5 1,5 5,5 51 27 66 36 W 0,1 0
19.11.2017 07:00:00 -3,8 -4,2 -3,9 0,5 1,5 5,5 42 23 61 33 W 0,1 0
19.11.2017 06:00:00 -3,8 -4,3 -3,9 0,5 1,5 5,5 42 23 64 34 W 0,1 0
19.11.2017 05:00:00 -3,4 -3,8 -3,6 0,5 1,5 5,5 41 22 56 30 W 0,1 0
19.11.2017 04:00:00 -3,3 -3,7 -3,4 0,5 1,5 5,5 32 17 58 32 W 0,1 0
19.11.2017 03:00:00 -3,5 -3,9 -3,6 0,5 1,5 5,5 41 22 58 31 W 0,1 0
19.11.2017 02:00:00 -3,3 -3,7 -3,4 0,5 1,5 5,5 48 26 67 36 W 0,1 0
19.11.2017 01:00:00 -3,2 -3,5 -3,3 0,5 1,5 5,5 48 26 72 39 W 0,1 0
19.11.2017 00:00:00 -3,2 -3,5 -3,3 0,5 1,5 5,5 50 27 74 40 W 0,1 0
18.11.2017 23:00:00 -3,3 -3,7 -3,4 0,5 1,5 5,5 53 29 71 38 W 0,1 0
18.11.2017 22:00:00 -3,5 -3,9 -3,5 0,5 1,5 5,5 50 27 74 40 W 0,1 0
18.11.2017 21:00:00 -3,6 -4,1 -3,7 0,5 1,5 5,5 56 31 80 43 W 0,1 0
18.11.2017 20:00:00 -3,7 -4,2 -3,8 0,5 1,5 5,5 58 31 82 44 W 0,1 0
18.11.2017 19:00:00 -3,9 -4,4 -3,9 0,5 1,5 5,5 64 34 86 46 W 0,4 0
18.11.2017 18:00:00 -3,8 -4,3 -3,9 0,5 1,5 5,5 65 35 88 48 W 4,0 0
18.11.2017 17:00:00 -3,6 -4,1 -3,7 0,5 1,5 5,5 66 36 84 45 W 0,8 0
18.11.2017 16:00:00 -3,8 -4,3 -3,9 0,5 1,5 5,5 62 33 92 50 W 4,0 0
18.11.2017 15:00:00 -3,7 -4,2 -3,8 0,5 1,5 5,5 59 32 84 45 W 3,0 0
18.11.2017 14:00:00 -3,5 -4,0 -3,5 0,5 1,5 5,5 55 30 76 41 WSW 4,0 0
18.11.2017 13:00:00 -3,3 -3,9 -3,2 0,5 1,5 5,5 55 30 69 37 WSW 6 1
18.11.2017 12:00:00 -3,2 -3,6 -3,1 0,5 1,5 5,5 50 27 69 37 W 8 0
18.11.2017 11:00:00 -3,0 -3,6 -2,9 0,5 1,5 5,6 48 26 64 35 WSW 10 0
18.11.2017 10:00:00 -2,9 -3,3 -2,8 0,5 1,5 5,6 42 23 55 30 W 10 0
18.11.2017 09:00:00 -3,0 -3,5 -3,1 0,5 1,5 5,6 33 18 40 22 WSW 10 17
18.11.2017 08:00:00 -2,9 -3,2 -3,0 0,5 1,5 5,6 28 15 36 20 W 0,1 0
18.11.2017 07:00:00 -2,5 -2,8 -2,8 0,5 1,5 5,6 26 14 41 22 W 0,1 0
18.11.2017 06:00:00 -2,0 -2,2 -2,1 0,5 1,5 5,6 27 15 42 23 W 0,1 0
18.11.2017 05:00:00 -1,7 -1,9 -1,8 0,5 1,5 5,6 29 16 40 22 W 0,1 0
18.11.2017 04:00:00 -1,6 -1,8 -1,7 0,4 1,5 5,6 31 17 41 22 W 0,1 0
18.11.2017 03:00:00 -1,7 -1,9 -1,8 0,4 1,5 5,6 29 16 37 20 W 0,1 0
18.11.2017 02:00:00 -2,8 -3,2 -2,9 0,4 1,5 5,6 19 10 23 12 WSW 3,0 0
18.11.2017 01:00:00 -3,0 -3,9 -3,4 0,4 1,5 5,6 12 7 16 9 W 65 0
18.11.2017 00:00:00 -2,1 -2,3 -2,3 0,4 1,5 5,6 12 6 19 10 W 0,1 0
17.11.2017 23:00:00 -2,4 -2,8 -2,7 0,4 1,5 5,6 14 8 18 10 W 30 0
17.11.2017 22:00:00 -2,6 -3,3 -3,0 0,4 1,6 5,6 17 9 19 11 W 60 0
17.11.2017 21:00:00 -2,1 -2,5 -2,4 0,4 1,6 5,6 17 9 20 11 W 25 0
17.11.2017 20:00:00 -1,4 -1,7 -1,9 0,4 1,6 5,6 16 9 21 12 W 0,1 0
17.11.2017 19:00:00 -1,3 -1,5 -1,5 0,4 1,6 5,6 13 7 22 12 NW 0,1 0
17.11.2017 18:00:00 -1,1 -1,3 -1,2 0,4 1,6 5,6 19 11 29 16 NW 0,1 0
17.11.2017 17:00:00 -0,9 -1,0 -1,0 0,4 1,6 5,6 20 11 30 16 NNW 0,1 0
17.11.2017 16:00:00 -0,7 -0,8 -0,8 0,5 1,6 5,6 22 12 33 18 NW 0,1 0
17.11.2017 15:00:00 -0,3 -0,3 -0,2 0,5 1,6 5,6 22 12 33 18 NW 0,1 0
17.11.2017 14:00:00 -0,2 -0,2 -0,1 0,5 1,6 5,6 22 12 29 15 NW 0,1 0
17.11.2017 13:00:00 -0,2 -0,2 -0,1 0,5 1,6 5,7 19 11 33 18 NW 0,1 0
17.11.2017 12:00:00 -0,2 -0,2 -0,1 0,5 1,6 5,7 25 13 36 19 WNW 0,1 0
17.11.2017 11:00:00 -0,1 -0,2 -0,1 0,5 1,6 5,7 22 12 31 17 WNW 0,1 0
17.11.2017 10:00:00 0,0 0,0 -0,1 0,5 1,6 5,7 22 12 29 16 WNW 0,1 0
17.11.2017 09:00:00 -0,1 -0,1 -0,1 0,5 1,6 5,7 22 12 30 16 WNW 0,1 0
17.11.2017 08:00:00 -0,1 -0,1 -0,1 0,5 1,6 5,7 24 13 36 19 NW 0,1 0
17.11.2017 07:00:00 -0,9 -1,0 -1,0 0,5 1,6 5,7 29 16 36 19 WNW 0,1 0
17.11.2017 06:00:00 -1,1 -1,1 -1,1 0,5 1,6 5,7 26 14 39 21 WNW 0,1 0
17.11.2017 05:00:00 -1,2 -1,2 -1,3 0,5 1,6 5,7 22 12 32 17 W 0,1 0
17.11.2017 04:00:00 -0,7 -1,3 -1,2 0,5 1,6 5,7 25 14 35 19 WNW 70 0
17.11.2017 03:00:00 -1,8 -2,6 -2,6 0,5 1,6 5,7 29 16 39 21 WNW 70 0
17.11.2017 02:00:00 -1,6 -4,2 -3,1 0,5 1,6 5,7 25 14 31 17 WNW 70 0
17.11.2017 01:00:00 -1,6 -4,2 -3,1 0,5 1,6 5,7 26 14 30 16 WNW 30 0
17.11.2017 00:00:00 -2,1 -2,9 -2,6 0,5 1,6 5,7 17 9 19 11 W 30 0
16.11.2017 23:00:00 -2,4 -3,0 -4,2 0,5 1,6 5,7 17 9 22 12 W 30 0
16.11.2017 22:00:00 -1,1 -5,7 -3,5 0,5 1,6 5,7 9 5 13 7 WNW 60 0
16.11.2017 21:00:00 -0,8 -4,3 -3,4 0,5 1,6 5,7 7 4 14 8 NW 30 0
16.11.2017 20:00:00 0,4 -10,1 -2,0 0,4 1,6 5,7 13 7 23 12 ESE 80 0
16.11.2017 19:00:00 0,6 -8,8 -1,0 0,4 1,6 5,7 20 11 28 15 SE 80 0
16.11.2017 18:00:00 0,2 -11,7 -1,0 0,4 1,6 5,7 24 13 31 17 SE 80 0
16.11.2017 17:00:00 0,3 -10,4 -0,7 0,4 1,6 5,7 28 15 37 20 ESE 80 0
16.11.2017 16:00:00 0,3 -3,2 -0,2 0,4 1,6 5,8 30 16 39 21 ESE 60 0
16.11.2017 15:00:00 0,5 -1,3 0,4 0,5 1,6 5,8 33 18 42 23 ESE 50 15
16.11.2017 14:00:00 0,6 -0,4 0,7 0,5 1,6 5,8 29 16 46 25 ESE 10 54
16.11.2017 13:00:00 0,2 -0,5 0,7 0,5 1,6 5,8 35 19 45 24 SE 10 60
16.11.2017 12:00:00 0,0 -0,2 0,2 0,5 1,6 5,8 36 19 45 25 SE 10 60
16.11.2017 11:00:00 -0,1 -0,3 0,1 0,5 1,6 5,8 36 20 46 25 ESE 0,1 54
16.11.2017 10:00:00 -0,4 -0,5 -0,1 0,5 1,6 5,8 32 17 40 21 ESE 0,1 38
16.11.2017 09:00:00 -0,8 -0,9 -0,7 0,4 1,6 5,8 27 15 35 19 ESE 0,1 0
16.11.2017 08:00:00 -1,0 -1,1 -1,0 0,4 1,6 5,8 22 12 31 17 ESE 0,1 0
16.11.2017 07:00:00 -1,0 -1,2 -1,4 0,4 1,6 5,8 22 12 29 15 ESE 0,1 0
16.11.2017 06:00:00 -0,5 -0,6 -0,8 0,4 1,6 5,8 19 10 24 13 ESE - 0
16.11.2017 05:00:00 -0,2 -0,3 -0,8 0,4 1,6 5,8 19 11 23 12 ESE - 0
16.11.2017 04:00:00 -0,3 -0,4 -0,4 0,4 1,6 5,8 14 7 19 10 ESE - 0
16.11.2017 03:00:00 -0,3 -0,5 -0,4 0,4 1,6 5,8 13 7 22 12 ESE 0,1 0
16.11.2017 02:00:00 0,3 0,2 0,0 0,4 1,6 5,8 18 10 21 11 ESE 0,1 0
16.11.2017 01:00:00 0,5 0,5 -0,3 0,4 1,6 5,8 13 7 16 9 E 0,1 0
16.11.2017 00:00:00 0,6 0,5 -0,3 0,4 1,6 5,8 14 7 18 10 ESE 0,1 0
15.11.2017 23:00:00 1,0 0,9 0,0 0,4 1,6 5,8 13 7 16 9 ESE 0,1 0
15.11.2017 22:00:00 1,2 1,1 0,9 0,4 1,6 5,8 14 8 17 9 E 0,1 0
15.11.2017 21:00:00 1,3 1,2 0,6 0,4 1,6 5,9 12 6 16 9 ENE 0,1 0
15.11.2017 20:00:00 1,7 1,6 1,4 0,4 1,6 5,9 12 7 18 10 NNE 0,1 0
15.11.2017 19:00:00 1,3 1,2 1,0 0,4 1,6 5,9 13 7 16 9 N 0,1 0
15.11.2017 18:00:00 1,5 1,4 1,3 0,4 1,7 5,9 11 6 16 9 N 0,1 0
15.11.2017 17:00:00 1,2 1,2 1,0 0,4 1,7 5,9 16 9 22 12 NW 0,1 0
15.11.2017 16:00:00 1,2 1,2 1,0 0,4 1,7 5,9 20 11 23 12 NW 0,1 0
15.11.2017 15:00:00 0,9 0,8 1,3 0,4 1,7 5,9 13 7 21 11 WNW 0,1 3
15.11.2017 14:00:00 0,8 0,7 3,1 0,4 1,7 5,9 13 7 21 11 W 10 10
15.11.2017 13:00:00 0,1 0,0 1,6 0,5 1,7 5,9 15 8 19 11 W 0,1 6
15.11.2017 12:00:00 0,0 -0,1 1,4 0,5 1,7 5,9 15 8 20 11 W 0,1 0
15.11.2017 11:00:00 0,0 0,0 1,2 0,5 1,7 5,9 16 9 21 11 W 0,1 0
15.11.2017 10:00:00 0,0 0,0 0,7 0,5 1,7 5,9 18 10 24 13 W 0,1 0
15.11.2017 09:00:00 0,0 0,0 -0,1 0,5 1,7 5,9 18 10 29 15 W 0,1 0
15.11.2017 08:00:00 0,0 0,0 -0,1 0,5 1,7 5,9 24 13 29 16 WNW 0,1 0
15.11.2017 07:00:00 0,0 0,0 -0,1 0,5 1,7 5,9 27 14 32 17 W 0,1 0
15.11.2017 06:00:00 0,0 0,0 -0,1 0,5 1,7 5,9 27 15 37 20 W 0,1 0
15.11.2017 05:00:00 -0,1 -0,2 -0,1 0,5 1,7 5,9 29 16 37 20 WNW 0,1 0
15.11.2017 04:00:00 -0,3 -0,4 -0,3 0,5 1,7 5,9 32 17 39 21 W 0,1 0
15.11.2017 03:00:00 -0,6 -0,7 -0,4 0,5 1,7 5,9 32 18 39 21 W 0,1 0
15.11.2017 02:00:00 -1,5 -1,7 -1,3 0,5 1,7 6,0 33 18 38 21 W 0,1 0
15.11.2017 01:00:00 -2,0 -2,3 -1,9 0,5 1,7 6,0 33 18 41 22 W 0,1 0
15.11.2017 00:00:00 -2,5 -2,9 -2,7 0,5 1,7 6,0 35 19 44 24 W 20 0
14.11.2017 23:00:00 -2,7 -3,1 -2,8 0,5 1,7 6,0 35 19 48 26 W 10 0
14.11.2017 22:00:00 -2,8 -3,2 -2,9 0,5 1,7 6,0 37 20 48 26 W 8 0
14.11.2017 21:00:00 -3,1 -3,6 -3,1 0,5 1,7 6,0 41 22 52 28 W 10 0
14.11.2017 20:00:00 -3,7 -4,3 -3,8 0,5 1,7 6,0 44 24 53 29 W 6 0
14.11.2017 19:00:00 -3,9 -4,6 -4,4 0,5 1,7 6,0 43 23 52 28 W 0,2 0
14.11.2017 18:00:00 -3,4 -4,0 -3,9 0,5 1,7 6,0 44 24 55 30 W 0,2 0
14.11.2017 17:00:00 -2,9 -3,4 -3,1 0,5 1,7 6,0 43 23 55 30 WSW 0,4 0
14.11.2017 16:00:00 -2,4 -2,9 -2,7 0,5 1,7 6,0 39 21 54 29 W 0,4 0
14.11.2017 15:00:00 -2,2 -2,6 -2,3 0,5 1,7 6,0 40 22 53 28 W 11 2
14.11.2017 14:00:00 -2,0 -2,4 -2,0 0,5 1,7 6,0 39 21 54 29 W 11 2
14.11.2017 13:00:00 -2,0 -2,5 -2,1 0,5 1,7 6,0 41 22 54 29 W 10 1
14.11.2017 12:00:00 -1,4 -1,7 -1,2 0,5 1,8 6,0 36 20 48 26 W 0,2 14
14.11.2017 11:00:00 -1,8 -2,2 -2,0 0,5 1,8 6,0 37 20 46 25 W 0,1 1
14.11.2017 10:00:00 -2,0 -2,4 -2,0 0,5 1,8 6,0 34 18 45 24 W 0,1 0
14.11.2017 09:00:00 -2,8 -3,1 -2,7 0,5 1,8 6,0 25 13 44 24 W 0,1 0
14.11.2017 08:00:00 -3,0 -3,4 -3,1 0,5 1,8 6,1 32 17 45 24 W 0,1 0
14.11.2017 07:00:00 -2,8 -3,2 -2,9 0,5 1,8 6,1 33 18 48 26 WNW 0,1 0
14.11.2017 06:00:00 -2,8 -3,2 -2,8 0,5 1,8 6,1 39 21 49 26 W 0,1 0
14.11.2017 05:00:00 -2,9 -3,3 -3,0 0,5 1,8 6,1 38 21 49 27 WNW 0,1 0
14.11.2017 04:00:00 -3,0 -3,4 -3,1 0,5 1,8 6,1 33 18 45 24 WNW 0,1 0
14.11.2017 03:00:00 -3,1 -3,5 -3,2 0,5 1,8 6,1 40 21 50 27 W 0,1 0
14.11.2017 02:00:00 -3,1 -3,5 -3,2 0,5 1,8 6,1 33 18 44 24 WNW 0,1 0
14.11.2017 01:00:00 -3,2 -3,6 -3,4 0,5 1,8 6,1 32 17 46 25 WNW 0,1 0

tt = Température de l'air
td = dewpoint
tt 5cm = Température de l'air 5cm
tt -5cm = Température de l'air -5cm
tt -20cm = Température de l'air -20cm
tt -100cm = Température de l'air -100cm
ff = Vitesse du vent
fx = gusts
dd = Direction du vent
vv = visibility
sd = Ensoleillement

stations d'obs. à proximité